Terminal Aerodrome Forecast
Issued by NWS Goodland, KS

Home | Current Version | Previous Version | Graphics & Text | Print | Product List | Glossary On
Versions: 1 2 3 4 5 6 7 8 9 10 11 12 13 14 15 16 17 18 19 20 21 22 23
000
FTUS43 KGLD 312320
TAFGLD
TAF
KGLD 312320Z 0100/0124 11010KT P6SM VCSH SCT050 BKN110
     FM010500 14006KT P6SM SCT003 BKN110
     FM010600 14006KT 3SM BR BKN015
     FM011000 15005KT 2SM BR BKN003
     FM011500 15008KT P6SM BKN008
     FM011800 15011KT P6SM SCT035
     FM012100 15012G17KT P6SM SCT150=

USA.gov is the U.S. government's official web portal to all federal, state and local government web resources and services.